Aérodrome :
LOGIN :

S'inscrire | Disclaimer

   EN    FR    IT 

 










Légende :    VFR   VFR Marginal   IFR   IFR Intensif   IFR Très Intensif
Visi : 
Plafond : 
>= 8 km
>= 3000ft
5 à 8 km
1000 à 3000 ft
1500m à 5 km
500 à 1000 ft
800 à 1500m
200 à 500 ft
< 800m
< 200 ft
Symboles :   Orages  Brouillard  Fortes neiges  Fortes précipitations  Vent > 20 kt
SIGMETs :   Divers  Orages  Givrage  Turbulence  Onde Orograph.  Cendres Volcan.







- Altitude de l'aérodrome : 38 ft
- Code IATA : ADX


EGQL - RAF Leuchars

DERNIER METAR :
  • 171350Z 21010KT 9999 FEW021 OVC070 18/14 Q1007 RMK BLU

METARs EXPIRÉS :
  • 171250Z 25009KT 9999 -RA FEW018 SCT038 OVC090 18/14 Q1008 RMK BLU
  • 171225Z 23014KT 9999 SCT032 OVC090 19/14 Q1008 RMK BLU
  • 171150Z AUTO 23015KT 9999 FEW021/// BKN036/// 19/14 Q1008

TAF TAF EGQL
Valide du 17 à 15h jusqu'au 18 à 00h UTC


171325Z 1715/1724 22010KT 9999 FEW020 SCT045
PROB30
TEMPO 1715/1718 7000 SHRA SCT020
TEMPO 1718/1724 5000 RA SCT012
PROB30
TEMPO 1721/1724 4000 RADZ SCT006
Pas de NOTAMs connus pour ce terrain.



MET'MAP, la Météo Aéronautique d'un coup d'oeil ! - Copyright ORBIFLY Décembre 2007 - Disclaimer

ORBIFLY MET'MAP TEAM :

Programmation & Développement : Alexandra Zaïnal
Conception & Développement : Baudouin d'Aumeries
Co-Programmation & Développement : Marc-Olivier Méhu
Soutien technique & logistique : Manuel Goepfert

Contact : metmap@orbifly.com




SOURCES & CREDITS :

   NOAA